Time;durP1;ratioP1;P1;durP2;ratioP2;P2;SDS_P1;SDS_P2;PMS_P1;PMS_P2;Temp;Humidity;BMP_temperature;BMP_pressure;BME280_temperature;BME280_humidity;BME280_pressure;Samples;Min_cycle;Max_cycle;Signal;HPM_P1;HPM_P2
2022/03/28 00:01:52;;;;;;;37.47;6.63;;;;;;;;;;5094813;28;20090;-62
2022/03/28 00:04:19;;;;;;;59.57;7.57;;;;;;;;;;5096682;28;20032;-62
2022/03/28 00:06:45;;;;;;;62.93;7.60;;;;;;;;;;5101679;28;20044;-62
2022/03/28 00:09:12;;;;;;;44.53;7.40;;;;;;;;;;5097433;28;20039;-62
2022/03/28 00:11:39;;;;;;;60.70;6.97;;;;;;;;;;5097859;28;20048;-62
2022/03/28 00:14:05;;;;;;;60.63;7.33;;;;;;;;;;5096919;28;20047;-62
2022/03/28 00:16:31;;;;;;;41.43;6.97;;;;;;;;;;5097771;28;20048;-62
2022/03/28 00:18:57;;;;;;;37.70;7.30;;;;;;;;;;5098129;28;20047;-62
2022/03/28 00:21:24;;;;;;;47.47;7.23;;;;;;;;;;5099527;28;20044;-62
2022/03/28 00:23:51;;;;;;;55.77;7.33;;;;;;;;;;5096922;28;20047;-63
2022/03/28 00:26:17;;;;;;;49.30;7.33;;;;;;;;;;5099567;28;20072;-62
2022/03/28 00:28:43;;;;;;;51.93;7.87;;;;;;;;;;5097955;28;20130;-62
2022/03/28 00:31:09;;;;;;;32.17;7.07;;;;;;;;;;5095888;28;20067;-62
2022/03/28 00:33:35;;;;;;;44.87;7.33;;;;;;;;;;5096413;28;20517;-62
2022/03/28 00:36:01;;;;;;;36.67;7.63;;;;;;;;;;5096041;28;20052;-63
2022/03/28 00:38:29;;;;;;;27.73;6.43;;;;;;;;;;5098560;28;20048;-62
2022/03/28 00:40:55;;;;;;;32.10;6.27;;;;;;;;;;5101407;28;20089;-62
2022/03/28 00:43:21;;;;;;;39.13;6.60;;;;;;;;;;5099366;28;20040;-62
2022/03/28 00:45:47;;;;;;;50.07;7.73;;;;;;;;;;5094614;28;20039;-62
2022/03/28 00:48:13;;;;;;;49.27;7.73;;;;;;;;;;5096473;28;20051;-62
2022/03/28 00:50:39;;;;;;;56.13;8.07;;;;;;;;;;5097960;28;20043;-63
2022/03/28 00:53:06;;;;;;;67.40;8.13;;;;;;;;;;5093830;28;20056;-62
2022/03/28 00:55:33;;;;;;;21.70;6.60;;;;;;;;;;5099417;28;20044;-62
2022/03/28 00:57:59;;;;;;;45.90;8.20;;;;;;;;;;5094992;28;20077;-62
2022/03/28 01:00:25;;;;;;;28.93;6.50;;;;;;;;;;5094167;28;20052;-63
2022/03/28 01:02:51;;;;;;;61.23;6.83;;;;;;;;;;5098813;28;20040;-62
2022/03/28 01:05:17;;;;;;;18.77;5.40;;;;;;;;;;5094831;28;20086;-62
2022/03/28 01:07:43;;;;;;;52.50;5.67;;;;;;;;;;5096608;28;20162;-62
2022/03/28 01:10:10;;;;;;;17.97;5.90;;;;;;;;;;5097874;28;20042;-63
2022/03/28 01:12:37;;;;;;;39.70;5.63;;;;;;;;;;5094724;28;20032;-63
2022/03/28 01:15:03;;;;;;;26.60;4.80;;;;;;;;;;5099239;28;20866;-63
2022/03/28 01:20:14;;;;;;;33.13;5.47;;;;;;;;;;5079741;28;20048;-63
2022/03/28 01:22:41;;;;;;;42.57;5.47;;;;;;;;;;5096417;28;20054;-63
2022/03/28 01:25:07;;;;;;;30.17;6.13;;;;;;;;;;5078095;28;20048;-63
2022/03/28 01:27:36;;;;;;;70.93;7.43;;;;;;;;;;5092162;28;20089;-63
2022/03/28 01:30:04;;;;;;;28.67;5.90;;;;;;;;;;5098429;28;20084;-63
2022/03/28 01:32:30;;;;;;;54.57;6.50;;;;;;;;;;5096504;28;20069;-63
2022/03/28 01:34:56;;;;;;;60.27;6.80;;;;;;;;;;5099429;28;20060;-62
2022/03/28 01:37:22;;;;;;;60.17;6.67;;;;;;;;;;5099165;28;20040;-63
2022/03/28 01:39:49;;;;;;;18.77;5.00;;;;;;;;;;5097760;28;20055;-63
2022/03/28 01:42:15;;;;;;;87.83;7.60;;;;;;;;;;5098548;28;20055;-63
2022/03/28 01:44:41;;;;;;;34.03;6.27;;;;;;;;;;5097417;28;20068;-63
2022/03/28 01:47:07;;;;;;;67.50;7.20;;;;;;;;;;5100276;28;20074;-62
2022/03/28 01:49:34;;;;;;;36.20;6.80;;;;;;;;;;5097899;28;20036;-63
2022/03/28 01:52:00;;;;;;;22.97;5.93;;;;;;;;;;5097311;28;20039;-63
2022/03/28 01:54:26;;;;;;;21.40;5.90;;;;;;;;;;5098630;28;20036;-63
2022/03/28 01:56:52;;;;;;;56.67;8.37;;;;;;;;;;5096990;28;20498;-63
2022/03/28 01:59:18;;;;;;;63.57;8.13;;;;;;;;;;5096635;28;20906;-63
2022/03/28 02:01:44;;;;;;;29.27;6.70;;;;;;;;;;5080137;28;20497;-63
2022/03/28 02:04:10;;;;;;;23.30;5.57;;;;;;;;;;5098551;28;20091;-63
2022/03/28 02:06:36;;;;;;;45.77;6.30;;;;;;;;;;5098285;28;20452;-63
2022/03/28 02:09:02;;;;;;;137.50;9.93;;;;;;;;;;5094877;28;20040;-63
2022/03/28 02:11:29;;;;;;;77.43;8.67;;;;;;;;;;5077459;28;20056;-63
2022/03/28 02:13:55;;;;;;;121.20;9.20;;;;;;;;;;5093045;28;20046;-63
2022/03/28 02:16:21;;;;;;;82.57;9.40;;;;;;;;;;5099049;28;20047;-62
2022/03/28 02:18:47;;;;;;;129.93;11.17;;;;;;;;;;5100309;28;20095;-63
2022/03/28 02:21:13;;;;;;;76.90;10.10;;;;;;;;;;5094479;28;20055;-63
2022/03/28 02:23:39;;;;;;;182.97;13.87;;;;;;;;;;5102472;28;20051;-62
2022/03/28 02:26:05;;;;;;;45.43;8.30;;;;;;;;;;5108954;28;20051;-63
2022/03/28 02:28:32;;;;;;;46.07;9.67;;;;;;;;;;5109147;28;20604;-63
2022/03/28 02:30:59;;;;;;;60.47;8.30;;;;;;;;;;5093442;28;20040;-62
2022/03/28 02:33:25;;;;;;;85.20;10.23;;;;;;;;;;5088342;28;20464;-63
2022/03/28 02:35:51;;;;;;;63.07;8.90;;;;;;;;;;5088402;28;20423;-63
2022/03/28 02:38:17;;;;;;;85.80;9.90;;;;;;;;;;5088520;28;20040;-63
2022/03/28 02:40:43;;;;;;;133.77;11.63;;;;;;;;;;5093813;28;20048;-63
2022/03/28 02:43:09;;;;;;;145.10;11.37;;;;;;;;;;5091287;28;20418;-63
2022/03/28 02:45:36;;;;;;;86.57;10.87;;;;;;;;;;5088259;28;20044;-63
2022/03/28 02:48:05;;;;;;;77.17;11.00;;;;;;;;;;5088490;28;20048;-63
2022/03/28 02:50:32;;;;;;;127.13;11.73;;;;;;;;;;5087600;28;20548;-63
2022/03/28 02:52:58;;;;;;;119.50;13.00;;;;;;;;;;5088237;28;20040;-63
2022/03/28 02:55:24;;;;;;;80.47;12.23;;;;;;;;;;5102814;28;20493;-63
2022/03/28 02:57:52;;;;;;;100.33;14.70;;;;;;;;;;5108159;28;20048;-63
2022/03/28 03:00:18;;;;;;;75.07;11.13;;;;;;;;;;5108716;28;20048;-63
2022/03/28 03:02:44;;;;;;;159.63;13.90;;;;;;;;;;5099819;28;20038;-63
2022/03/28 03:05:11;;;;;;;92.90;12.67;;;;;;;;;;5095099;28;20105;-63
2022/03/28 03:07:37;;;;;;;68.00;11.17;;;;;;;;;;5092877;28;20513;-63
2022/03/28 03:10:04;;;;;;;38.60;11.10;;;;;;;;;;5088584;28;20047;-63
2022/03/28 03:12:30;;;;;;;118.47;10.97;;;;;;;;;;5088449;28;20048;-63
2022/03/28 03:14:56;;;;;;;81.63;11.83;;;;;;;;;;5088182;28;20055;-63
2022/03/28 03:17:22;;;;;;;93.83;12.50;;;;;;;;;;5087924;28;20127;-63
2022/03/28 03:19:49;;;;;;;99.60;11.33;;;;;;;;;;5088233;28;20089;-63
2022/03/28 03:22:15;;;;;;;93.83;11.40;;;;;;;;;;5087684;28;20059;-63
2022/03/28 03:24:42;;;;;;;199.83;16.17;;;;;;;;;;5088123;28;20065;-63
2022/03/28 03:27:09;;;;;;;61.57;9.90;;;;;;;;;;5090042;28;20031;-63
2022/03/28 03:29:35;;;;;;;79.50;12.57;;;;;;;;;;5091921;28;20051;-63
2022/03/28 03:32:01;;;;;;;48.83;9.70;;;;;;;;;;5112540;28;20240;-63
2022/03/28 03:34:27;;;;;;;65.43;10.27;;;;;;;;;;5111229;28;20067;-63
2022/03/28 03:36:54;;;;;;;52.27;10.07;;;;;;;;;;5112451;28;20044;-63
2022/03/28 03:39:22;;;;;;;145.97;15.77;;;;;;;;;;5112348;28;20040;-63
2022/03/28 03:41:49;;;;;;;83.47;11.73;;;;;;;;;;5112198;28;20138;-63
2022/03/28 03:44:15;;;;;;;113.77;11.67;;;;;;;;;;5111977;28;20040;-63
2022/03/28 03:46:41;;;;;;;57.30;10.63;;;;;;;;;;5111744;28;20089;-63
2022/03/28 03:49:08;;;;;;;115.93;13.37;;;;;;;;;;5111272;28;20044;-63
2022/03/28 03:51:35;;;;;;;90.47;11.57;;;;;;;;;;5111684;28;20092;-63
2022/03/28 03:54:01;;;;;;;92.20;11.37;;;;;;;;;;5111788;28;20051;-63
2022/03/28 03:56:30;;;;;;;97.67;12.53;;;;;;;;;;5110372;28;20050;-63
2022/03/28 03:58:56;;;;;;;50.47;11.57;;;;;;;;;;5101937;28;20092;-63
2022/03/28 04:01:23;;;;;;;52.50;10.50;;;;;;;;;;5096171;28;20056;-63
2022/03/28 04:03:49;;;;;;;81.33;13.37;;;;;;;;;;5073213;28;20573;-64
2022/03/28 04:06:15;;;;;;;67.17;13.63;;;;;;;;;;5089541;28;20573;-64
2022/03/28 04:08:41;;;;;;;58.20;13.43;;;;;;;;;;5073557;28;20528;-63
2022/03/28 04:11:08;;;;;;;61.53;12.83;;;;;;;;;;5098697;28;20622;-63
2022/03/28 04:13:34;;;;;;;80.37;14.33;;;;;;;;;;5111775;28;20063;-64
2022/03/28 04:16:01;;;;;;;52.03;11.90;;;;;;;;;;5111044;28;20506;-63
2022/03/28 04:18:27;;;;;;;59.97;12.87;;;;;;;;;;5092056;28;20055;-63
2022/03/28 04:20:54;;;;;;;50.93;11.80;;;;;;;;;;5110691;28;20087;-63
2022/03/28 04:23:20;;;;;;;64.37;12.93;;;;;;;;;;5106913;28;20044;-63
2022/03/28 04:25:46;;;;;;;54.30;13.93;;;;;;;;;;5090591;28;20051;-64
2022/03/28 04:28:12;;;;;;;79.73;15.27;;;;;;;;;;5091231;28;20036;-63
2022/03/28 04:30:39;;;;;;;53.50;13.70;;;;;;;;;;5090959;28;20040;-63
2022/03/28 04:33:07;;;;;;;70.37;15.77;;;;;;;;;;5090652;28;20588;-63
2022/03/28 04:35:33;;;;;;;73.03;16.10;;;;;;;;;;5099697;28;20583;-63
2022/03/28 04:38:00;;;;;;;63.43;16.53;;;;;;;;;;5108272;28;20043;-64
2022/03/28 04:40:26;;;;;;;70.37;16.73;;;;;;;;;;5101749;28;20044;-63
2022/03/28 04:42:52;;;;;;;61.63;16.80;;;;;;;;;;5099075;28;20102;-63
2022/03/28 04:45:18;;;;;;;61.87;15.27;;;;;;;;;;5109054;28;20055;-64
2022/03/28 04:47:45;;;;;;;86.10;17.23;;;;;;;;;;5111177;28;20055;-64
2022/03/28 04:50:11;;;;;;;87.93;16.67;;;;;;;;;;5111068;28;20757;-64
2022/03/28 04:52:37;;;;;;;73.73;16.67;;;;;;;;;;5110696;28;20047;-63
2022/03/28 04:55:06;;;;;;;73.13;17.93;;;;;;;;;;5110030;28;20035;-63
2022/03/28 04:57:32;;;;;;;76.00;17.17;;;;;;;;;;5098435;28;20044;-63
2022/03/28 04:59:59;;;;;;;60.93;16.73;;;;;;;;;;5090666;28;20036;-63
2022/03/28 05:02:25;;;;;;;77.53;19.73;;;;;;;;;;5092598;28;20040;-64
2022/03/28 05:04:51;;;;;;;87.60;20.03;;;;;;;;;;5101135;28;20036;-63
2022/03/28 05:07:24;;;;;;;80.30;20.47;;;;;;;;;;5099862;28;20192;-64
2022/03/28 05:09:50;;;;;;;63.55;16.90;;;;;;;;;;5100765;28;20071;-63
2022/03/28 05:12:16;;;;;;;85.63;18.73;;;;;;;;;;5089858;28;20127;-63
2022/03/28 05:14:42;;;;;;;47.43;15.70;;;;;;;;;;5090234;28;20043;-64
2022/03/28 05:17:08;;;;;;;49.93;15.97;;;;;;;;;;5088780;28;20166;-63
2022/03/28 05:19:35;;;;;;;50.43;14.90;;;;;;;;;;5087141;28;20165;-63
2022/03/28 05:22:01;;;;;;;42.57;15.10;;;;;;;;;;5088007;28;20079;-63
2022/03/28 05:24:27;;;;;;;52.93;16.97;;;;;;;;;;5088185;28;20040;-63
2022/03/28 05:26:53;;;;;;;61.17;18.37;;;;;;;;;;5106293;28;20104;-63
2022/03/28 05:29:23;;;;;;;58.23;17.57;;;;;;;;;;5100185;28;20044;-63
2022/03/28 05:31:49;;;;;;;46.90;15.10;;;;;;;;;;5099394;28;20047;-63
2022/03/28 05:34:15;;;;;;;79.20;18.03;;;;;;;;;;5100910;28;20060;-63
2022/03/28 05:36:42;;;;;;;73.90;17.60;;;;;;;;;;5096535;28;20059;-63
2022/03/28 05:39:09;;;;;;;91.70;18.00;;;;;;;;;;5089240;28;20044;-63
2022/03/28 05:41:35;;;;;;;68.00;17.67;;;;;;;;;;5109410;28;20043;-63
2022/03/28 05:44:01;;;;;;;65.70;16.97;;;;;;;;;;5109585;28;20111;-63
2022/03/28 05:46:27;;;;;;;61.83;17.90;;;;;;;;;;5108942;28;20043;-63
2022/03/28 05:48:54;;;;;;;112.20;19.87;;;;;;;;;;5103762;28;20051;-63
2022/03/28 05:51:20;;;;;;;80.97;18.37;;;;;;;;;;5088328;28;20047;-63
2022/03/28 05:53:46;;;;;;;78.17;16.83;;;;;;;;;;5088078;28;20085;-64
2022/03/28 05:56:12;;;;;;;108.67;19.20;;;;;;;;;;5088526;28;20051;-63
2022/03/28 05:58:38;;;;;;;67.43;18.63;;;;;;;;;;5088411;28;20036;-63
2022/03/28 06:01:05;;;;;;;96.60;18.20;;;;;;;;;;5090582;28;20055;-63
2022/03/28 06:03:31;;;;;;;88.10;17.43;;;;;;;;;;5109281;28;20071;-64
2022/03/28 06:05:57;;;;;;;76.70;17.20;;;;;;;;;;5098983;28;20044;-63
2022/03/28 06:08:23;;;;;;;102.57;18.20;;;;;;;;;;5103623;28;20075;-63
2022/03/28 06:10:49;;;;;;;50.07;15.63;;;;;;;;;;5108944;28;20044;-63
2022/03/28 06:13:17;;;;;;;94.50;17.57;;;;;;;;;;5108541;28;20134;-63
2022/03/28 06:15:43;;;;;;;61.37;17.10;;;;;;;;;;5094577;28;20048;-64
2022/03/28 06:18:10;;;;;;;83.00;18.53;;;;;;;;;;5098531;28;20151;-64
2022/03/28 06:20:36;;;;;;;68.67;17.53;;;;;;;;;;5091015;28;20051;-63
2022/03/28 06:23:02;;;;;;;54.47;16.20;;;;;;;;;;5093573;28;20047;-64
2022/03/28 06:25:28;;;;;;;82.27;17.10;;;;;;;;;;5093786;28;20047;-63
2022/03/28 06:27:54;;;;;;;116.30;18.53;;;;;;;;;;5095422;28;20472;-64
2022/03/28 06:30:21;;;;;;;46.97;16.27;;;;;;;;;;5094314;28;20559;-63
2022/03/28 06:32:47;;;;;;;47.97;15.77;;;;;;;;;;5093672;28;20047;-63
2022/03/28 06:35:13;;;;;;;99.77;17.57;;;;;;;;;;5076907;28;20449;-63
2022/03/28 06:37:39;;;;;;;56.17;15.70;;;;;;;;;;5075326;28;20054;-63
2022/03/28 06:40:06;;;;;;;73.57;17.20;;;;;;;;;;5093287;28;20069;-64
2022/03/28 06:42:32;;;;;;;27.93;13.27;;;;;;;;;;5097585;28;20489;-64
2022/03/28 06:44:59;;;;;;;32.63;15.43;;;;;;;;;;5095272;28;20493;-63
2022/03/28 06:47:25;;;;;;;35.27;15.00;;;;;;;;;;5094531;28;20085;-64
2022/03/28 06:49:51;;;;;;;45.37;16.67;;;;;;;;;;5095881;28;20518;-64
2022/03/28 06:52:18;;;;;;;30.53;15.80;;;;;;;;;;5096005;28;20040;-64
2022/03/28 06:54:44;;;;;;;30.80;16.37;;;;;;;;;;5099890;28;20123;-64
2022/03/28 06:57:10;;;;;;;37.60;18.20;;;;;;;;;;5101317;28;20047;-64
2022/03/28 06:59:36;;;;;;;38.83;17.90;;;;;;;;;;5094286;28;20048;-64
2022/03/28 07:02:02;;;;;;;41.47;16.90;;;;;;;;;;5100441;28;20043;-64
2022/03/28 07:04:28;;;;;;;42.67;14.80;;;;;;;;;;5099243;28;20252;-64
2022/03/28 07:06:54;;;;;;;25.93;14.93;;;;;;;;;;5101723;28;20142;-64
2022/03/28 07:09:20;;;;;;;31.73;16.07;;;;;;;;;;5098888;28;20039;-64
2022/03/28 07:11:47;;;;;;;29.70;14.03;;;;;;;;;;5098225;28;20096;-64
2022/03/28 07:14:13;;;;;;;27.00;14.13;;;;;;;;;;5097592;28;20057;-64
2022/03/28 07:16:39;;;;;;;26.70;13.93;;;;;;;;;;5097953;28;20043;-64
2022/03/28 07:19:05;;;;;;;28.60;15.33;;;;;;;;;;5097878;28;20125;-63
2022/03/28 07:21:31;;;;;;;25.23;13.77;;;;;;;;;;5101165;28;20040;-64
2022/03/28 07:23:57;;;;;;;56.70;17.07;;;;;;;;;;5104384;28;20077;-64
2022/03/28 07:26:23;;;;;;;33.97;16.30;;;;;;;;;;5077711;28;20163;-64
2022/03/28 07:28:49;;;;;;;32.10;15.23;;;;;;;;;;5101766;28;20040;-63
2022/03/28 07:31:17;;;;;;;54.67;16.23;;;;;;;;;;5101197;28;20054;-64
2022/03/28 07:33:44;;;;;;;33.20;15.63;;;;;;;;;;5098109;28;20061;-64
2022/03/28 07:36:10;;;;;;;31.47;17.00;;;;;;;;;;5100273;28;20135;-64
2022/03/28 07:38:37;;;;;;;23.60;13.00;;;;;;;;;;5102607;28;20047;-64
2022/03/28 07:41:06;;;;;;;27.57;15.20;;;;;;;;;;5099828;28;20059;-64
2022/03/28 07:43:32;;;;;;;29.53;17.43;;;;;;;;;;5099854;28;20106;-66
2022/03/28 07:45:58;;;;;;;41.97;16.50;;;;;;;;;;5090950;28;20097;-64
2022/03/28 07:48:24;;;;;;;33.23;15.50;;;;;;;;;;5088923;28;20048;-64
2022/03/28 07:50:51;;;;;;;23.40;13.83;;;;;;;;;;5089176;28;20131;-64
2022/03/28 07:53:18;;;;;;;22.43;13.47;;;;;;;;;;5089244;28;20056;-63
2022/03/28 07:55:45;;;;;;;23.93;13.47;;;;;;;;;;5089396;28;20040;-64
2022/03/28 07:58:12;;;;;;;23.87;14.20;;;;;;;;;;5088985;28;20075;-64
2022/03/28 08:00:40;;;;;;;20.37;13.50;;;;;;;;;;5089332;28;20052;-64
2022/03/28 08:03:06;;;;;;;22.10;14.10;;;;;;;;;;5090076;28;20169;-64
2022/03/28 08:05:32;;;;;;;24.30;14.33;;;;;;;;;;5090918;28;20130;-64
2022/03/28 08:07:58;;;;;;;23.23;14.33;;;;;;;;;;5072079;28;20178;-64
2022/03/28 08:10:25;;;;;;;24.73;13.53;;;;;;;;;;5090247;28;20123;-64
2022/03/28 08:12:52;;;;;;;23.67;13.53;;;;;;;;;;5090157;28;20044;-64
2022/03/28 08:15:18;;;;;;;18.43;12.03;;;;;;;;;;5089702;28;20094;-64
2022/03/28 08:17:44;;;;;;;18.83;11.87;;;;;;;;;;5090276;28;20044;-64
2022/03/28 08:20:11;;;;;;;18.73;11.87;;;;;;;;;;5090175;28;20090;-64
2022/03/28 08:22:38;;;;;;;19.47;11.63;;;;;;;;;;5089516;28;20079;-64
2022/03/28 08:25:04;;;;;;;18.10;12.33;;;;;;;;;;5090351;28;20048;-64
2022/03/28 08:27:30;;;;;;;21.70;12.63;;;;;;;;;;5090415;28;20040;-64
2022/03/28 08:29:56;;;;;;;23.83;12.07;;;;;;;;;;5089444;28;20040;-64
2022/03/28 08:32:22;;;;;;;16.97;11.80;;;;;;;;;;5089985;28;20044;-64
2022/03/28 08:34:49;;;;;;;16.07;10.70;;;;;;;;;;5089676;28;20048;-64
2022/03/28 08:37:16;;;;;;;15.83;11.10;;;;;;;;;;5089839;28;20140;-64
2022/03/28 08:39:43;;;;;;;15.40;10.37;;;;;;;;;;5089692;28;20414;-64
2022/03/28 08:42:12;;;;;;;16.13;10.87;;;;;;;;;;5090196;28;20040;-66
2022/03/28 08:44:38;;;;;;;18.57;11.97;;;;;;;;;;5089621;28;20131;-64
2022/03/28 08:47:05;;;;;;;17.80;10.83;;;;;;;;;;5089464;28;20048;-64
2022/03/28 08:49:31;;;;;;;13.97;9.90;;;;;;;;;;5089373;28;20043;-64
2022/03/28 08:51:57;;;;;;;13.60;10.07;;;;;;;;;;5089713;28;20036;-64
2022/03/28 08:54:23;;;;;;;14.67;9.87;;;;;;;;;;5089548;28;20093;-64
2022/03/28 08:56:49;;;;;;;14.93;10.53;;;;;;;;;;5090142;28;20040;-64
2022/03/28 08:59:15;;;;;;;14.70;9.90;;;;;;;;;;5089318;28;20055;-64
2022/03/28 09:01:42;;;;;;;13.67;9.17;;;;;;;;;;5089283;28;20080;-64
2022/03/28 09:04:09;;;;;;;14.60;9.73;;;;;;;;;;5089336;28;20040;-64
2022/03/28 09:06:39;;;;;;;12.83;8.73;;;;;;;;;;5089335;28;20054;-64
2022/03/28 09:09:12;;;;;;;13.50;9.57;;;;;;;;;;5071344;28;20052;-64
2022/03/28 09:11:39;;;;;;;13.43;9.10;;;;;;;;;;5089216;28;20104;-64
2022/03/28 09:14:05;;;;;;;14.57;9.93;;;;;;;;;;5088998;28;20044;-64
2022/03/28 09:16:34;;;;;;;16.87;10.73;;;;;;;;;;5089421;28;20085;-64
2022/03/28 09:19:01;;;;;;;15.23;10.40;;;;;;;;;;5088724;28;20052;-64
2022/03/28 09:21:27;;;;;;;16.37;11.10;;;;;;;;;;5088796;28;20047;-64
2022/03/28 09:23:54;;;;;;;15.73;10.60;;;;;;;;;;5070793;28;20055;-64
2022/03/28 09:26:22;;;;;;;15.27;9.63;;;;;;;;;;5087914;28;20088;-64
2022/03/28 09:28:48;;;;;;;14.27;10.30;;;;;;;;;;5088718;28;20048;-64
2022/03/28 09:31:18;;;;;;;17.90;11.60;;;;;;;;;;5088877;28;20090;-64
2022/03/28 09:33:57;;;;;;;16.03;10.27;;;;;;;;;;5088893;28;20501;-64
2022/03/28 09:36:41;;;;;;;15.40;10.67;;;;;;;;;;5088355;28;20515;-64
2022/03/28 09:39:28;;;;;;;17.00;11.10;;;;;;;;;;5088673;28;20508;-64
2022/03/28 09:41:59;;;;;;;18.97;11.77;;;;;;;;;;5089061;28;20403;-64
2022/03/28 09:44:34;;;;;;;16.93;10.43;;;;;;;;;;5089134;28;20060;-64
2022/03/28 09:47:05;;;;;;;16.23;10.50;;;;;;;;;;5088601;28;20099;-64
2022/03/28 09:49:32;;;;;;;17.63;10.63;;;;;;;;;;5088426;28;20051;-64
2022/03/28 09:52:08;;;;;;;20.30;11.47;;;;;;;;;;5088372;28;20044;-64
2022/03/28 09:54:51;;;;;;;19.23;11.67;;;;;;;;;;5088830;28;20499;-64
2022/03/28 09:57:22;;;;;;;17.65;11.20;;;;;;;;;;5088264;28;20047;-64
2022/03/28 09:59:48;;;;;;;17.07;11.50;;;;;;;;;;5070191;28;20502;-64
2022/03/28 10:02:19;;;;;;;19.63;11.33;;;;;;;;;;5088230;28;20056;-64
2022/03/28 10:04:46;;;;;;;16.47;10.87;;;;;;;;;;5088447;28;20040;-64
2022/03/28 10:07:13;;;;;;;19.27;10.43;;;;;;;;;;5088362;28;20090;-64
2022/03/28 10:09:40;;;;;;;17.40;10.87;;;;;;;;;;5087756;28;20055;-64
2022/03/28 10:12:07;;;;;;;14.93;9.40;;;;;;;;;;5088354;28;20082;-64
2022/03/28 10:14:33;;;;;;;14.20;9.60;;;;;;;;;;5088590;28;20491;-64
2022/03/28 10:17:03;;;;;;;15.07;9.47;;;;;;;;;;5089053;28;20693;-64
2022/03/28 10:19:34;;;;;;;15.40;10.03;;;;;;;;;;5090009;28;20044;-64
2022/03/28 10:22:02;;;;;;;16.63;9.30;;;;;;;;;;5087962;28;20058;-65
2022/03/28 10:24:29;;;;;;;16.90;9.60;;;;;;;;;;5092040;28;20089;-65
2022/03/28 10:26:59;;;;;;;14.40;8.90;;;;;;;;;;5093485;28;20443;-64
2022/03/28 10:29:35;;;;;;;14.27;8.90;;;;;;;;;;5092220;28;20040;-65
2022/03/28 10:32:07;;;;;;;13.97;9.07;;;;;;;;;;5094369;28;20063;-65
2022/03/28 10:34:40;;;;;;;15.13;9.07;;;;;;;;;;5103779;28;20052;-64
2022/03/28 10:37:25;;;;;;;12.73;8.73;;;;;;;;;;5102436;28;20059;-65
2022/03/28 10:39:52;;;;;;;12.67;8.50;;;;;;;;;;5108074;28;20172;-65
2022/03/28 10:42:23;;;;;;;13.63;8.27;;;;;;;;;;5107674;28;20046;-65
2022/03/28 10:45:00;;;;;;;15.53;8.70;;;;;;;;;;5107940;28;20044;-65
2022/03/28 10:47:45;;;;;;;16.13;9.07;;;;;;;;;;5108128;28;20047;-65
2022/03/28 10:50:12;;;;;;;12.00;8.13;;;;;;;;;;5108297;28;20078;-65
2022/03/28 10:52:38;;;;;;;14.33;8.23;;;;;;;;;;5107592;28;20135;-65
2022/03/28 10:55:11;;;;;;;13.73;8.30;;;;;;;;;;5108022;28;20089;-65
2022/03/28 10:57:38;;;;;;;11.05;7.53;;;;;;;;;;5108355;28;20454;-65
2022/03/28 11:00:12;;;;;;;12.97;7.43;;;;;;;;;;5107373;28;20455;-65
2022/03/28 11:02:39;;;;;;;10.37;7.40;;;;;;;;;;5108042;28;20047;-65
2022/03/28 11:05:12;;;;;;;13.30;7.27;;;;;;;;;;5107891;28;20650;-65
2022/03/28 11:07:38;;;;;;;10.80;7.70;;;;;;;;;;5107893;28;20134;-65
2022/03/28 11:10:06;;;;;;;13.20;7.80;;;;;;;;;;5107930;28;20047;-64
2022/03/28 11:12:34;;;;;;;10.97;7.20;;;;;;;;;;5107797;28;20047;-65
2022/03/28 11:15:00;;;;;;;10.33;7.40;;;;;;;;;;5107836;28;20079;-64
2022/03/28 11:17:29;;;;;;;10.93;7.40;;;;;;;;;;5108075;28;20516;-65
2022/03/28 11:19:56;;;;;;;11.67;7.80;;;;;;;;;;5107673;28;20054;-65
2022/03/28 11:22:39;;;;;;;12.30;7.40;;;;;;;;;;5107148;28;20044;-66
2022/03/28 11:25:05;;;;;;;10.23;6.80;;;;;;;;;;5107717;28;20059;-65
2022/03/28 11:27:33;;;;;;;11.03;6.33;;;;;;;;;;5107658;28;20123;-65
2022/03/28 11:30:05;;;;;;;11.07;7.00;;;;;;;;;;5107308;28;20048;-65
2022/03/28 11:32:32;;;;;;;9.77;6.93;;;;;;;;;;5107192;28;20126;-65
2022/03/28 11:34:59;;;;;;;9.40;6.40;;;;;;;;;;5107120;28;20058;-65
2022/03/28 11:37:26;;;;;;;8.50;5.77;;;;;;;;;;5107653;28;20131;-65
2022/03/28 11:39:54;;;;;;;8.80;6.07;;;;;;;;;;5107662;28;20064;-65
2022/03/28 11:42:23;;;;;;;8.30;5.63;;;;;;;;;;5107347;28;20052;-65
2022/03/28 11:44:50;;;;;;;9.27;6.30;;;;;;;;;;5106928;28;20055;-65
2022/03/28 11:47:17;;;;;;;8.03;6.07;;;;;;;;;;5107699;28;20058;-65
2022/03/28 11:49:53;;;;;;;8.80;6.30;;;;;;;;;;5107812;28;20047;-65
2022/03/28 11:52:23;;;;;;;8.60;5.47;;;;;;;;;;5111199;28;20043;-65
2022/03/28 11:54:50;;;;;;;6.57;5.20;;;;;;;;;;5111030;28;20047;-65
2022/03/28 12:00:27;;;;;;;8.27;6.07;;;;;;;;;;5111327;28;20081;-65
2022/03/28 12:02:57;;;;;;;7.40;5.97;;;;;;;;;;5110705;28;20055;-65
2022/03/28 12:05:32;;;;;;;8.73;6.10;;;;;;;;;;5111283;28;20092;-66
2022/03/28 12:07:59;;;;;;;7.07;5.57;;;;;;;;;;5110818;28;20052;-65
2022/03/28 12:10:30;;;;;;;7.97;5.33;;;;;;;;;;5111272;28;20052;-65
2022/03/28 12:12:57;;;;;;;8.27;6.20;;;;;;;;;;5110893;28;20054;-65
2022/03/28 12:15:23;;;;;;;9.60;6.50;;;;;;;;;;5092590;28;20046;-66
2022/03/28 12:17:54;;;;;;;7.40;5.87;;;;;;;;;;5110451;28;20108;-65
2022/03/28 12:20:26;;;;;;;13.10;5.97;;;;;;;;;;5110677;28;20043;-65
2022/03/28 12:22:52;;;;;;;9.05;6.95;;;;;;;;;;5109783;28;20054;-65
2022/03/28 12:25:37;;;;;;;9.83;6.80;;;;;;;;;;5110445;28;20551;-65
2022/03/28 12:28:05;;;;;;;9.20;6.60;;;;;;;;;;5110342;28;20101;-65
2022/03/28 12:30:52;;;;;;;9.43;6.27;;;;;;;;;;5110485;28;20069;-65
2022/03/28 12:33:19;;;;;;;9.17;6.37;;;;;;;;;;5110062;28;20084;-66
2022/03/28 12:35:49;;;;;;;8.57;6.57;;;;;;;;;;5110133;28;20056;-66
2022/03/28 12:38:20;;;;;;;8.57;7.03;;;;;;;;;;5110480;28;20059;-65
2022/03/28 12:40:47;;;;;;;7.90;6.77;;;;;;;;;;5110080;28;20047;-65
2022/03/28 12:43:13;;;;;;;9.33;7.17;;;;;;;;;;5110226;28;20043;-66
2022/03/28 12:45:40;;;;;;;10.97;6.93;;;;;;;;;;5109696;28;20118;-66
2022/03/28 12:48:07;;;;;;;9.73;7.23;;;;;;;;;;5110203;28;20043;-66
2022/03/28 12:50:34;;;;;;;8.53;7.20;;;;;;;;;;5109821;28;20135;-66
2022/03/28 12:53:10;;;;;;;8.40;6.83;;;;;;;;;;5110016;28;20051;-66
2022/03/28 12:55:37;;;;;;;9.07;6.63;;;;;;;;;;5110183;28;20054;-66
2022/03/28 12:58:03;;;;;;;7.67;6.70;;;;;;;;;;5109694;28;20050;-66
2022/03/28 13:00:30;;;;;;;9.93;7.40;;;;;;;;;;5109321;28;20052;-66
2022/03/28 13:03:01;;;;;;;8.40;7.00;;;;;;;;;;5110092;28;20059;-66
2022/03/28 13:05:28;;;;;;;6.60;5.90;;;;;;;;;;5109924;28;20044;-63
2022/03/28 13:07:54;;;;;;;8.87;6.63;;;;;;;;;;5091703;28;20051;-63
2022/03/28 13:10:24;;;;;;;8.23;6.80;;;;;;;;;;5109835;28;20044;-66
2022/03/28 13:12:55;;;;;;;8.70;7.63;;;;;;;;;;5109687;28;20105;-66
2022/03/28 13:15:22;;;;;;;8.95;6.55;;;;;;;;;;5109109;28;20073;-66
2022/03/28 13:17:48;;;;;;;8.00;7.20;;;;;;;;;;5109642;28;20051;-66
2022/03/28 13:20:22;;;;;;;8.45;6.47;;;;;;;;;;5109306;28;20050;-64
2022/03/28 13:22:50;;;;;;;9.27;7.70;;;;;;;;;;5108787;28;20130;-66
2022/03/28 13:25:18;;;;;;;11.88;6.88;;;;;;;;;;5109759;28;20049;-66
2022/03/28 13:28:04;;;;;;;9.52;6.43;;;;;;;;;;5109328;28;20119;-66
2022/03/28 13:30:41;;;;;;;9.77;6.90;;;;;;;;;;5109454;28;20052;-66
2022/03/28 13:33:09;;;;;;;8.57;6.57;;;;;;;;;;5090417;28;20043;-64
2022/03/28 13:35:36;;;;;;;9.10;6.78;;;;;;;;;;5108933;28;20466;-63
2022/03/28 13:38:03;;;;;;;8.05;6.78;;;;;;;;;;5108857;28;20054;-66
2022/03/28 13:40:30;;;;;;;7.18;6.32;;;;;;;;;;5109401;28;20047;-66
2022/03/28 13:42:57;;;;;;;10.57;7.15;;;;;;;;;;5108947;28;20086;-66
2022/03/28 13:45:23;;;;;;;7.28;6.57;;;;;;;;;;5109121;28;20047;-63
2022/03/28 13:47:50;;;;;;;9.80;6.75;;;;;;;;;;5108575;28;20040;-64
2022/03/28 13:50:16;;;;;;;7.55;6.40;;;;;;;;;;5108887;28;21494;-63
2022/03/28 13:52:43;;;;;;;9.20;8.05;;;;;;;;;;5108803;28;20082;-63
2022/03/28 13:55:10;;;;;;;8.73;7.03;;;;;;;;;;5108475;28;20051;-64
2022/03/28 13:57:36;;;;;;;11.95;7.70;;;;;;;;;;5108980;28;20040;-63
2022/03/28 14:00:03;;;;;;;11.13;7.68;;;;;;;;;;5108221;28;20050;-64
2022/03/28 14:02:29;;;;;;;11.70;7.68;;;;;;;;;;5108878;28;20043;-66
2022/03/28 14:04:55;;;;;;;10.02;7.63;;;;;;;;;;5108356;28;20035;-66
2022/03/28 14:07:21;;;;;;;9.48;7.88;;;;;;;;;;5108240;28;20074;-66
2022/03/28 14:09:47;;;;;;;9.90;7.88;;;;;;;;;;5108581;28;20429;-66
2022/03/28 14:12:13;;;;;;;10.95;8.18;;;;;;;;;;5108256;28;20563;-64
2022/03/28 14:14:39;;;;;;;9.95;8.45;;;;;;;;;;5108200;28;20055;-64
2022/03/28 14:17:05;;;;;;;9.60;8.55;;;;;;;;;;5108339;28;20055;-64
2022/03/28 14:19:31;;;;;;;11.63;8.60;;;;;;;;;;5108142;28;20089;-64
2022/03/28 14:21:57;;;;;;;14.00;10.15;;;;;;;;;;5107906;28;20047;-63
2022/03/28 14:24:23;;;;;;;13.48;9.40;;;;;;;;;;5108185;28;20054;-63
2022/03/28 14:26:49;;;;;;;10.95;9.35;;;;;;;;;;5108363;28;20051;-64
2022/03/28 14:29:16;;;;;;;10.48;9.38;;;;;;;;;;5107842;28;20421;-64
2022/03/28 14:31:42;;;;;;;11.30;10.10;;;;;;;;;;5108034;28;20094;-64